createdAt,value
2022-12-22T00:00:10.215Z,99714.06
2022-12-22T00:02:57.773Z,99717.72
2022-12-22T00:05:43.981Z,99724.09
2022-12-22T00:08:29.290Z,99721.25
2022-12-22T00:11:19.191Z,99728.59
2022-12-22T00:14:07.456Z,99724.25
2022-12-22T00:16:57.498Z,99721.25
2022-12-22T00:19:46.229Z,99708.84
2022-12-22T00:22:42.735Z,99708.84
2022-12-22T00:25:34.318Z,99721.13
2022-12-22T00:28:31.829Z,99714.78
2022-12-22T00:31:17.070Z,99707.84
2022-12-22T00:34:03.048Z,99709.59
2022-12-22T00:36:48.384Z,99697.13
2022-12-22T00:39:33.722Z,99704.94
2022-12-22T00:42:19.326Z,99696.72
2022-12-22T00:45:07.721Z,99689.69
2022-12-22T00:47:56.081Z,99676.44
2022-12-22T00:50:53.266Z,99681.66
2022-12-22T00:53:39.950Z,99684.34
2022-12-22T00:56:27.852Z,99687.69
2022-12-22T00:59:17.904Z,99678.66
2022-12-22T01:02:09.180Z,99675.84
2022-12-22T01:04:57.446Z,99685.72
2022-12-22T01:07:45.290Z,99682.88
2022-12-22T01:10:34.546Z,99685.09
2022-12-22T01:13:19.980Z,99678.91
2022-12-22T01:16:08.059Z,99674.38
2022-12-22T01:18:53.580Z,99679.44
2022-12-22T01:21:50.346Z,99682.50
2022-12-22T01:24:37.732Z,99673.63
2022-12-22T01:27:23.694Z,99665.41
2022-12-22T01:30:08.954Z,99660.94
2022-12-22T01:32:54.686Z,99669.94
2022-12-22T01:35:46.222Z,99662.91
2022-12-22T01:38:34.282Z,99658.38
2022-12-22T01:41:23.607Z,99663.59
2022-12-22T01:44:09.599Z,99659.22
2022-12-22T01:47:05.753Z,99656.41
2022-12-22T01:50:03.044Z,99652.72
2022-12-22T01:52:54.880Z,99648.38
2022-12-22T01:55:44.364Z,99642.16
2022-12-22T01:58:48.716Z,99631.28
2022-12-22T02:01:37.216Z,99646.53
2022-12-22T02:04:23.967Z,99641.63
2022-12-22T02:07:22.532Z,99634.41
2022-12-22T02:10:17.609Z,99632.28
2022-12-22T02:14:05.679Z,99627.75
2022-12-22T02:17:20.212Z,99617.88
2022-12-22T02:20:56.209Z,99618.75
2022-12-22T02:24:12.385Z,99617.19
2022-12-22T02:27:06.286Z,99625.22
2022-12-22T02:30:00.236Z,99621.56
2022-12-22T02:32:46.230Z,99624.38
2022-12-22T02:35:35.642Z,99624.56
2022-12-22T02:38:56.723Z,99622.41
2022-12-22T02:42:27.228Z,99620.56
2022-12-22T02:45:34.759Z,99615.38
2022-12-22T02:48:30.167Z,99613.66
2022-12-22T02:51:39.820Z,99613.84
2022-12-22T02:54:36.609Z,99608.63
2022-12-22T02:57:25.942Z,99606.78
2022-12-22T03:00:11.312Z,99609.31
2022-12-22T03:02:57.052Z,99600.59
2022-12-22T03:05:50.498Z,99610.47
2022-12-22T03:08:38.842Z,99600.59
2022-12-22T03:11:24.191Z,99590.03
2022-12-22T03:14:09.297Z,99592.69
2022-12-22T03:16:54.641Z,99581.28
2022-12-22T03:19:40.035Z,99575.09
2022-12-22T03:22:25.797Z,99565.38
2022-12-22T03:25:11.217Z,99569.75
2022-12-22T03:27:37.999Z,99561.00
2022-12-22T03:30:07.981Z,99562.03
2022-12-22T03:32:34.618Z,99562.16
2022-12-22T03:35:01.247Z,99552.00
2022-12-22T03:37:28.021Z,99564.84
2022-12-22T03:39:54.701Z,99550.63
2022-12-22T03:42:42.042Z,99552.13
2022-12-22T03:45:29.456Z,99546.09
2022-12-22T03:47:56.078Z,99545.94
2022-12-22T03:50:22.835Z,99546.63
2022-12-22T03:52:49.723Z,99548.44
2022-12-22T03:55:16.352Z,99539.72
2022-12-22T03:57:43.010Z,99531.84
2022-12-22T04:00:10.383Z,99529.69
2022-12-22T04:02:37.169Z,99535.22
2022-12-22T04:05:04.812Z,99531.69
2022-12-22T04:07:31.589Z,99530.56
2022-12-22T04:10:16.890Z,99523.50
2022-12-22T04:12:55.827Z,99513.47
2022-12-22T04:15:26.921Z,99517.16
2022-12-22T04:17:54.516Z,99509.78
2022-12-22T04:20:27.859Z,99509.63
2022-12-22T04:22:59.074Z,99507.97
2022-12-22T04:25:28.456Z,99509.78
2022-12-22T04:27:58.576Z,99495.72
2022-12-22T04:30:25.295Z,99496.72
2022-12-22T04:32:52.059Z,99507.97
2022-12-22T04:35:18.842Z,99507.09
2022-12-22T04:37:48.490Z,99495.72
2022-12-22T04:40:15.948Z,99491.88
2022-12-22T04:42:44.997Z,99485.84
2022-12-22T04:45:17.730Z,99487.50
2022-12-22T04:47:44.608Z,99489.34
2022-12-22T04:50:11.572Z,99480.63
2022-12-22T04:52:38.542Z,99479.81
2022-12-22T08:17:54.362Z,99433.38
2022-12-22T08:20:21.062Z,99426.31
2022-12-22T08:33:37.695Z,99413.97
2022-12-22T08:36:15.195Z,99416.66
2022-12-22T08:38:43.241Z,99415.81
2022-12-22T08:41:15.191Z,99419.31
2022-12-22T08:43:42.132Z,99416.50
2022-12-22T08:46:08.755Z,99411.97
2022-12-22T08:48:38.126Z,99416.97
2022-12-22T08:51:05.282Z,99415.81
2022-12-22T08:54:04.413Z,99406.59
2022-12-22T08:56:18.566Z,99407.13
2022-12-22T08:58:46.980Z,99408.31
2022-12-22T09:01:23.503Z,99410.50
2022-12-22T09:03:52.815Z,99412.50
2022-12-22T09:06:27.334Z,99424.09
2022-12-22T09:09:01.190Z,99418.53
2022-12-22T09:11:30.448Z,99417.72
2022-12-22T09:14:01.911Z,99418.25
2022-12-22T09:16:33.004Z,99425.13
2022-12-22T09:19:01.553Z,99431.66
2022-12-22T09:21:30.538Z,99431.66
2022-12-22T09:23:58.633Z,99435.66
2022-12-22T09:26:32.142Z,99435.47
2022-12-22T09:28:58.972Z,99431.94
2022-12-22T09:31:26.870Z,99427.25
2022-12-22T09:33:54.253Z,99424.59
2022-12-22T09:36:28.886Z,99430.97
2022-12-22T09:38:55.738Z,99422.78
2022-12-22T09:41:57.767Z,99420.97
2022-12-22T09:44:33.272Z,99432.22
2022-12-22T09:47:17.896Z,99429.38
2022-12-22T09:49:45.125Z,99432.72
2022-12-22T09:52:36.341Z,99436.25
2022-12-22T09:55:26.004Z,99425.69
2022-12-22T09:57:56.207Z,99438.97
2022-12-22T10:00:27.680Z,99434.06
2022-12-22T10:03:31.654Z,99427.34
2022-12-22T10:06:25.775Z,99427.88
2022-12-22T10:29:17.770Z,99422.03
2022-12-22T10:32:14.401Z,99418.81
2022-12-22T10:35:03.471Z,99423.84
2022-12-22T10:37:40.793Z,99430.91
2022-12-22T10:40:30.387Z,99417.31
2022-12-22T10:43:25.934Z,99422.16
2022-12-22T10:54:36.130Z,99417.56
2022-12-22T10:57:29.985Z,99421.63
2022-12-22T11:08:33.709Z,99410.25
2022-12-22T11:11:22.771Z,99416.28
2022-12-22T11:34:54.017Z,99397.91
2022-12-22T11:38:03.121Z,99410.16
2022-12-22T11:40:58.436Z,99394.63
2022-12-22T11:43:49.060Z,99392.16
2022-12-22T11:46:38.388Z,99403.28
2022-12-22T11:50:57.523Z,99394.06
2022-12-22T11:53:31.845Z,99407.72
2022-12-22T11:56:35.547Z,99402.84
2022-12-22T11:59:47.830Z,99404.34
2022-12-22T12:02:24.866Z,99406.56
2022-12-22T12:05:51.815Z,99406.59
2022-12-22T12:08:55.741Z,99402.03
2022-12-22T12:11:47.179Z,99406.59
2022-12-22T12:14:13.763Z,99410.59
2022-12-22T12:17:00.998Z,99406.41
2022-12-22T12:23:50.496Z,99418.50
2022-12-22T12:26:31.884Z,99416.81
2022-12-22T12:29:27.271Z,99430.13
2022-12-22T12:32:13.319Z,99446.69
2022-12-22T12:34:52.328Z,99448.34
2022-12-22T12:37:49.637Z,99450.84
2022-12-22T12:40:40.586Z,99441.81
2022-12-22T12:43:16.597Z,99438.34
2022-12-22T12:45:49.079Z,99432.44
2022-12-22T12:48:25.773Z,99444.31
2022-12-22T12:50:53.103Z,99445.44
2022-12-22T12:53:28.532Z,99441.56
2022-12-22T12:56:03.139Z,99444.38
2022-12-22T12:58:37.617Z,99446.69
2022-12-22T13:01:30.511Z,99448.22
2022-12-22T13:04:05.867Z,99439.34
2022-12-22T13:06:55.891Z,99441.16
2022-12-22T13:09:50.114Z,99440.47
2022-12-22T13:12:51.484Z,99441.50
2022-12-22T13:15:42.383Z,99440.25
2022-12-22T13:18:36.012Z,99448.38
2022-12-22T13:24:26.399Z,99442.28
2022-12-22T13:27:00.425Z,99454.25
2022-12-22T13:29:39.262Z,99459.53
2022-12-22T13:32:36.202Z,99471.53
2022-12-22T13:35:30.975Z,99465.13
2022-12-22T13:37:58.659Z,99477.50
2022-12-22T13:40:39.453Z,99477.91
2022-12-22T13:43:16.642Z,99470.22
2022-12-22T13:45:58.714Z,99467.25
2022-12-22T13:48:44.278Z,99470.19
2022-12-22T13:51:24.861Z,99474.19
2022-12-22T13:54:09.140Z,99469.66
2022-12-22T13:56:46.152Z,99471.50
2022-12-22T13:59:36.176Z,99472.13
2022-12-22T14:02:18.453Z,99480.56
2022-12-22T14:05:08.943Z,99472.84
2022-12-22T14:07:36.225Z,99477.81
2022-12-22T14:10:04.127Z,99495.88
2022-12-22T14:12:47.119Z,99486.13
2022-12-22T14:15:20.497Z,99491.81
2022-12-22T14:17:52.537Z,99489.91
2022-12-22T14:20:38.198Z,99496.44
2022-12-22T14:23:17.615Z,99503.13
2022-12-22T14:25:48.530Z,99491.91
2022-12-22T14:28:27.355Z,99504.59
2022-12-22T14:30:59.142Z,99515.47
2022-12-22T14:33:29.876Z,99509.97
2022-12-22T14:36:25.888Z,99515.84
2022-12-22T14:38:56.845Z,99510.47
2022-12-22T14:41:54.879Z,99514.03
2022-12-22T14:44:49.211Z,99509.03
2022-12-22T14:47:25.310Z,99519.19
2022-12-22T14:50:19.354Z,99524.56
2022-12-22T14:52:55.724Z,99517.06
2022-12-22T14:55:39.344Z,99519.88
2022-12-22T14:58:43.370Z,99519.19
2022-12-22T15:07:54.248Z,99525.47
2022-12-22T15:12:57.843Z,99522.28
2022-12-22T15:59:29.978Z,99522.97
2022-12-22T16:10:04.247Z,99527.88
2022-12-22T16:12:33.299Z,99530.91
2022-12-22T16:20:27.356Z,99529.91
2022-12-22T16:34:03.980Z,99539.41
2022-12-22T16:36:30.715Z,99538.59
2022-12-22T16:58:27.758Z,99521.97
2022-12-22T17:11:49.452Z,99541.72
2022-12-22T17:14:39.101Z,99533.22
2022-12-22T17:25:25.471Z,99533.31
2022-12-22T17:27:52.928Z,99529.78
2022-12-22T18:16:48.148Z,99510.66
2022-12-22T18:19:15.080Z,99501.78
2022-12-22T18:21:45.196Z,99496.25
2022-12-22T18:35:07.031Z,99518.13
2022-12-22T18:43:21.033Z,99509.94
2022-12-22T18:45:48.108Z,99508.56
2022-12-22T18:48:15.094Z,99506.59
2022-12-22T18:50:46.220Z,99511.09
2022-12-22T19:01:38.474Z,99510.09
2022-12-22T19:04:06.844Z,99507.56
2022-12-22T19:25:53.270Z,99495.28
2022-12-22T19:28:36.079Z,99486.00
2022-12-22T19:31:05.790Z,99480.41
2022-12-22T19:44:36.161Z,99500.31
2022-12-22T19:47:02.998Z,99486.22
2022-12-22T19:49:29.874Z,99487.75
2022-12-22T19:51:57.948Z,99495.28
2022-12-22T19:57:20.819Z,99498.09
2022-12-22T19:59:52.187Z,99494.72
2022-12-22T20:02:36.018Z,99497.03
2022-12-22T20:05:13.346Z,99487.75
2022-12-22T20:07:41.796Z,99494.41
2022-12-22T20:10:09.040Z,99483.84
2022-12-22T20:12:42.242Z,99485.84
2022-12-22T20:18:30.562Z,99478.16
2022-12-22T20:21:10.812Z,99483.97
2022-12-22T20:23:39.423Z,99485.81
2022-12-22T20:26:15.654Z,99482.44
2022-12-22T20:31:27.954Z,99487.66
2022-12-22T20:33:55.399Z,99484.78
2022-12-22T20:36:28.786Z,99489.72
2022-12-22T20:38:59.249Z,99493.38
2022-12-22T20:41:27.193Z,99493.13
2022-12-22T20:43:56.598Z,99491.88
2022-12-22T20:46:30.301Z,99487.97
2022-12-22T20:49:02.384Z,99485.56
2022-12-22T20:51:37.094Z,99475.31
2022-12-22T20:54:06.886Z,99480.66
2022-12-22T20:56:47.824Z,99484.88
2022-12-22T20:59:24.125Z,99489.75
2022-12-22T21:01:53.024Z,99484.88
2022-12-22T21:04:23.061Z,99480.03
2022-12-22T21:06:54.158Z,99476.25
2022-12-22T21:09:23.222Z,99480.28
2022-12-22T21:11:53.365Z,99484.38
2022-12-22T21:14:20.205Z,99488.75
2022-12-22T21:16:48.709Z,99495.31
2022-12-22T21:19:19.636Z,99485.16
2022-12-22T21:21:54.777Z,99496.41
2022-12-22T21:24:23.414Z,99496.25
2022-12-22T21:26:55.389Z,99503.84
2022-12-22T21:29:26.899Z,99495.34
2022-12-22T21:31:54.370Z,99495.59
2022-12-22T21:34:21.641Z,99504.31
2022-12-22T21:37:01.933Z,99495.97
2022-12-22T21:39:44.798Z,99487.97
2022-12-22T21:42:18.190Z,99489.19
2022-12-22T21:44:47.725Z,99498.75
2022-12-22T21:47:21.257Z,99494.78
2022-12-22T21:49:48.207Z,99509.84
2022-12-22T21:52:15.191Z,99498.00
2022-12-22T21:54:41.837Z,99502.22
2022-12-22T21:57:16.392Z,99487.97
2022-12-22T21:59:47.765Z,99495.88
2022-12-22T22:02:19.064Z,99502.06
2022-12-22T22:04:54.467Z,99505.41
2022-12-22T22:07:22.260Z,99499.38
2022-12-22T22:09:51.674Z,99501.09
2022-12-22T22:12:33.803Z,99501.91
2022-12-22T22:15:01.844Z,99507.97
2022-12-22T22:17:28.754Z,99509.50
2022-12-22T22:19:55.542Z,99503.31
2022-12-22T22:22:22.337Z,99490.06
2022-12-22T22:24:53.977Z,99496.41
2022-12-22T22:27:20.723Z,99501.38
2022-12-22T22:29:47.503Z,99496.63
2022-12-22T22:32:14.252Z,99492.44
2022-12-22T22:34:40.909Z,99491.19
2022-12-22T22:37:07.599Z,99491.03
2022-12-22T22:39:34.304Z,99483.03
2022-12-22T22:42:01.060Z,99483.16
2022-12-22T22:44:30.610Z,99474.13
2022-12-22T22:46:57.372Z,99472.06
2022-12-22T22:49:28.313Z,99471.06
2022-12-22T22:51:58.286Z,99471.38
2022-12-22T22:54:30.474Z,99462.66
2022-12-22T22:56:57.117Z,99458.59
2022-12-22T22:59:24.119Z,99461.59
2022-12-22T23:01:50.873Z,99459.19
2022-12-22T23:04:18.018Z,99455.00
2022-12-22T23:06:47.462Z,99460.09
2022-12-22T23:09:14.191Z,99461.00
2022-12-22T23:11:40.892Z,99467.03
2022-12-22T23:14:08.338Z,99464.38
2022-12-22T23:16:38.708Z,99455.78
2022-12-22T23:19:06.601Z,99451.81
2022-12-22T23:21:36.281Z,99442.03
2022-12-22T23:24:07.811Z,99452.69
2022-12-22T23:26:35.583Z,99447.72
2022-12-22T23:29:03.971Z,99453.47
2022-12-22T23:31:36.568Z,99451.63
2022-12-22T23:34:04.201Z,99445.81
2022-12-22T23:36:38.252Z,99435.81
2022-12-22T23:39:05.398Z,99445.78
2022-12-22T23:41:32.087Z,99448.00
2022-12-22T23:43:58.918Z,99446.84
2022-12-22T23:46:25.747Z,99459.22
2022-12-22T23:48:56.893Z,99446.72
2022-12-22T23:51:27.717Z,99449.91
2022-12-22T23:54:01.506Z,99443.41
2022-12-22T23:56:31.258Z,99449.75
2022-12-22T23:58:58.634Z,99438.38
